CheckWX is a tool to help pilots better visualize weather data.  It is not intended as a substitute for an official pre-flight weather briefing.

02:12:23 UTC

CYWH TAF
Victoria Harbour Seaplane Base
Victoria, Canada
TAF AMD CYWH 180104Z 1801/1805 VRB03KT P6SM SCT015 TEMPO 1801/1805 BKN015 BECMG 1802/1804 25010KT RMK NXT FCST WILL BE ISSUED AT 181515Z

Nov-18@
01:00 UTC

Nov-18 @ 01:00 UTC

Nov-18@
02:00 UTC

Nov-18 @ 02:00 UTC

TAF AMD CYWH 180104Z 1801/1805 VRB03KT P6SM SCT015

Expired

Wind
  • Variable at 3 KTS
Cloud Levels
  • Scattered at 1,500' AGL

Nov-18@
01:00 UTC

Nov-18 @ 01:00 UTC

Nov-18@
05:00 UTC

Nov-18 @ 05:00 UTC

TEMPO 1801/1805 BKN015

Temporary

Temporary Changes expected for less than half the time period

Cloud Levels
  • Broken at 1,500' AGL

Nov-18@
02:00 UTC

Nov-18 @ 02:00 UTC

Nov-18@
05:00 UTC

Nov-18 @ 05:00 UTC

BECMG 1802/1804 25010KT RMK NXT FCST WILL BE ISSUED AT 181515Z

Becoming

Becoming Conditions expected by Mon, Nov 18, 2019 @ 04:00 UTC

Wind
  • 250° at 10 KTS
Cloud Levels
  • Scattered at 1,500' AGL